AIRPORT METAR

METAR FOR LIMJ
ADDS - METARS form results

(0408 UTC 24 February 2018)
Data provider http://aviationweather.gov/adds/metars/
 
METAR text: LIMJ 240350Z 03013KT 330V070 9999 RA SCT010 BKN028 08/02 Q1005
Conditions at: LIMJ (GENOVA/SESTRI , IT) observed 0350 UTC 24 February 2018
Temperature: 8.0°C (46°F)
Dewpoint: 2.0°C (36°F) [RH = 66%]
Pressure (altimeter): 29.68 inches Hg (1005.0 mb)
Winds: from the NNE (30 degrees) at 15 MPH (13 knots; 6.8 m/s)
Visibility: 6 or more miles (10+ km)
Ceiling: 2800 feet AGL
Clouds: scattered clouds at 1000 feet AGL
broken clouds at 2800 feet AGL
Weather: RA  (rain)

METAR text: LIMJ 240320Z 02014G24KT 300V060 9999 RA SCT010 BKN028 08/02 Q1004
Conditions at: LIMJ (GENOVA/SESTRI , IT) observed 0320 UTC 24 February 2018
Temperature: 8.0°C (46°F)
Dewpoint: 2.0°C (36°F) [RH = 66%]
Pressure (altimeter): 29.65 inches Hg (1004.0 mb)
Winds: from the NNE (20 degrees) at 16 MPH (14 knots; 7.3 m/s)
gusting to 28 MPH (24 knots; 12.5 m/s)
Visibility: 6 or more miles (10+ km)
Ceiling: 2800 feet AGL
Clouds: scattered clouds at 1000 feet AGL
broken clouds at 2800 feet AGL
Weather: RA  (rain)

Forecast for: LIMJ (GENOVA/SESTRI , IT)
Text: TAF LIMJ 232300Z 2400/2424 02012KT 9999 SCT025 BKN060
Forecast period: 0000 UTC 24 February 2018 to 0000 UTC 25 February 2018
Forecast type: FROM: standard forecast or significant change
Winds: from the NNE (20 degrees) at 14 MPH (12 knots; 6.2 m/s)
Visibility: 6 or more miles (10+ km)
Ceiling: 6000 feet AGL
Clouds: scattered clouds at 2500 feet AGL
broken clouds at 6000 feet AGL
Weather: no significant weather forecast for this period
Text: TEMPO 2400/2421 01015G25KT
Forecast period: 0000 to 2100 UTC 24 February 2018
Forecast type: TEMPORARY: The following changes expected for less than half the time period
Winds: from the N (10 degrees) at 17 MPH (15 knots; 7.8 m/s)
gusting to 29 MPH (25 knots; 13.0 m/s)
Weather: no significant weather forecast for this period
Text: TEMPO 2400/2406 RA
Forecast period: 0000 to 0600 UTC 24 February 2018
Forecast type: TEMPORARY: The following changes expected for less than half the time period
Weather: RA  (rain)

AIRPORT MAP

 RUNWAY INFORMATION
Runway 10 Runway length 9564 ft Runway width 148 ft
Runway elevation 9 ft Runway displaced threshold 0 ft Runway heading 105
Runway 28 Runway length 9564 ft Runway width 148 ft
Runway elevation 12 ft Runway displaced threshold 528 ft Runway heading 285

 AIRPORT FREQUENCIES
Type APP Name APP Frequency 119.6 MHZ
Type ATIS Name ATIS Frequency 122.825 MHZ
Type TWR Name TWR Frequency 118.6 MHZ

 AIRPORT NEAR NAVIGATION AIDS
Type VOR-DME Name Genova Frequency 112800 KHZ
Type NDB Name Genova Frequency 318 KHZ
Type VOR-DME Name Genova Sestri Frequency 108600 KHZ



© 2017 - Royal Sky Service, All Right Reserved. | Design & Developed by Davide Torresan